Escobar, Argentina
Current Conditions -  °F | °C
As of 11:00 AM on Saturday 20 Dec 2014 (Local Time) from SADF Reporting Station
Moderate Rain Moderate Rain  
Wind Chill: 20°   Ceiling: 5000
Heat Index: 20°   Visibility: 5mi
Dew Point: 18°   Wind: 0mph
Humidity: 88%   Direction: NA
Pressure: 29.68"   Gusts: NA
Location:  34.35°S, 58.78°W
Report Text: SADF 201400Z 00000KT 8000 RA SCT030 OVC050 20/18 Q1005
Loading
Personal Weather Stations






























Interactive Weather Map New forecast layout! Learn more

10-Day Weather Forecast

Advertisements
Track Severe Weather on mobile